Time;durP1;ratioP1;P1;durP2;ratioP2;P2;SDS_P1;SDS_P2;PMS_P1;PMS_P2;Temp;Humidity;BMP_temperature;BMP_pressure;BME280_temperature;BME280_humidity;BME280_pressure;Samples;Min_cycle;Max_cycle;Signal;HPM_P1;HPM_P2
2022/12/15 00:40:20;;;;;;;9.38;6.25;;;18.90;51.50;;;;;;6246691;28;20112;-68
2022/12/15 00:43:21;;;;;;;11.40;7.00;;;18.90;51.40;;;;;;6244599;28;20723;-68
2022/12/15 01:22:55;;;;;;;9.85;7.20;;;18.90;51.50;;;;;;6221061;28;20439;-68
2022/12/15 01:25:56;;;;;;;10.88;7.38;;;18.90;51.50;;;;;;6228512;28;20025;-68
2022/12/15 01:28:57;;;;;;;11.02;7.13;;;18.90;51.50;;;;;;6245088;28;20403;-68
2022/12/15 01:31:57;;;;;;;11.20;7.78;;;18.90;51.50;;;;;;6244210;28;20051;-68
2022/12/15 01:34:58;;;;;;;13.82;7.90;;;18.90;51.40;;;;;;6243487;28;20063;-68
2022/12/15 01:37:59;;;;;;;10.45;7.10;;;18.90;51.60;;;;;;6260149;28;20033;-68
2022/12/15 01:41:03;;;;;;;12.55;8.20;;;18.90;51.40;;;;;;6243510;28;20118;-68
2022/12/15 01:44:20;;;;;;;9.77;6.88;;;18.90;51.40;;;;;;6244951;28;20032;-67
2022/12/15 01:47:24;;;;;;;12.55;7.30;;;18.90;51.40;;;;;;6244359;28;20025;-68
2022/12/15 01:50:26;;;;;;;11.88;7.70;;;18.90;51.40;;;;;;6244923;28;20486;-67
2022/12/15 01:53:32;;;;;;;11.68;7.50;;;18.90;51.40;;;;;;6220561;28;20014;-68
2022/12/15 01:56:38;;;;;;;10.60;7.30;;;18.90;51.40;;;;;;6228066;28;20106;-68
2022/12/15 01:59:45;;;;;;;11.10;7.05;;;18.90;51.40;;;;;;6243277;28;20070;-67
2022/12/15 02:02:47;;;;;;;12.02;7.32;;;18.90;51.50;;;;;;6244404;28;20131;-68
2022/12/15 02:05:49;;;;;;;12.82;8.00;;;18.90;51.40;;;;;;6244212;28;20045;-68
2022/12/15 02:08:53;;;;;;;11.30;7.30;;;18.90;51.40;;;;;;6242826;28;20398;-68
2022/12/15 02:11:56;;;;;;;11.02;7.38;;;18.90;51.40;;;;;;6243867;28;20098;-67
2022/12/15 02:15:00;;;;;;;11.45;7.43;;;18.90;51.40;;;;;;6242789;28;20029;-68
2022/12/15 02:18:11;;;;;;;11.63;7.10;;;18.90;51.40;;;;;;6243858;28;20478;-68
2022/12/15 02:21:51;;;;;;;11.18;7.30;;;18.90;51.40;;;;;;6244020;28;20032;-68
2022/12/15 02:24:57;;;;;;;11.80;7.65;;;18.90;51.30;;;;;;6221966;28;20120;-68
2022/12/15 02:28:05;;;;;;;11.15;7.38;;;18.90;51.40;;;;;;6243549;28;20022;-67
2022/12/15 02:31:48;;;;;;;12.50;8.10;;;18.90;51.30;;;;;;6243526;28;20018;-68
2022/12/15 02:34:57;;;;;;;12.65;7.65;;;18.90;51.40;;;;;;6243477;28;20017;-68
2022/12/15 02:37:57;;;;;;;13.55;8.35;;;18.90;51.40;;;;;;6243590;28;20028;-68
2022/12/15 02:41:00;;;;;;;10.70;6.90;;;18.90;51.30;;;;;;6241852;28;20065;-67
2022/12/15 02:44:06;;;;;;;10.82;7.55;;;18.90;51.30;;;;;;6243477;28;20025;-68
2022/12/15 02:47:28;;;;;;;11.35;6.97;;;18.90;51.30;;;;;;6243094;28;20064;-68
2022/12/15 02:50:32;;;;;;;11.73;7.82;;;18.90;51.30;;;;;;6243079;28;20021;-67
2022/12/15 02:54:15;;;;;;;11.00;7.30;;;18.90;51.30;;;;;;6243193;28;20538;-68
2022/12/15 02:57:31;;;;;;;10.55;7.45;;;18.90;51.40;;;;;;6242310;28;20072;-68
2022/12/15 03:00:40;;;;;;;13.45;7.80;;;18.90;51.30;;;;;;6243289;28;20026;-68
2022/12/15 03:03:42;;;;;;;11.85;7.55;;;18.90;51.40;;;;;;6242825;28;20025;-68
2022/12/15 03:06:43;;;;;;;13.38;7.95;;;18.90;51.30;;;;;;6242985;28;20025;-68
2022/12/15 03:09:44;;;;;;;11.27;7.32;;;18.90;51.30;;;;;;6242614;28;20026;-67
2022/12/15 03:12:45;;;;;;;11.50;7.05;;;18.90;51.30;;;;;;6243160;28;20072;-68
2022/12/15 03:15:45;;;;;;;10.88;6.80;;;18.90;51.30;;;;;;6242882;28;20515;-68
2022/12/15 03:18:46;;;;;;;12.32;7.80;;;18.90;51.30;;;;;;6241441;28;20032;-68
2022/12/15 03:21:47;;;;;;;11.75;7.75;;;18.90;51.30;;;;;;6242449;28;20029;-67
2022/12/15 03:24:47;;;;;;;12.43;7.57;;;18.90;51.30;;;;;;6243072;28;20108;-68
2022/12/15 03:27:48;;;;;;;11.57;7.53;;;18.90;51.30;;;;;;6241532;28;20062;-67
2022/12/15 03:30:49;;;;;;;11.70;7.70;;;18.90;51.30;;;;;;6242869;28;20128;-67
2022/12/15 03:33:49;;;;;;;13.20;7.97;;;18.90;51.30;;;;;;6241312;28;20022;-68
2022/12/15 03:36:50;;;;;;;11.55;7.60;;;18.90;51.40;;;;;;6243041;28;20032;-68
2022/12/15 03:39:51;;;;;;;11.23;7.40;;;18.90;51.40;;;;;;6242544;28;20650;-68
2022/12/15 03:42:51;;;;;;;10.95;7.30;;;18.90;51.30;;;;;;6242679;28;20101;-68
2022/12/15 03:45:52;;;;;;;14.18;7.88;;;18.90;51.40;;;;;;6241327;28;20276;-68
2022/12/15 03:48:53;;;;;;;11.75;7.55;;;18.90;51.40;;;;;;6242214;28;20033;-68
2022/12/15 03:51:53;;;;;;;10.75;7.25;;;18.90;51.40;;;;;;6242890;28;20391;-68
2022/12/15 03:54:54;;;;;;;11.70;7.35;;;18.90;51.40;;;;;;6242533;28;20440;-68
2022/12/15 03:57:55;;;;;;;8.82;6.40;;;18.90;51.40;;;;;;6242172;28;20022;-68
2022/12/15 04:00:56;;;;;;;10.40;6.93;;;18.90;51.40;;;;;;6242186;28;20589;-68
2022/12/15 04:03:57;;;;;;;9.68;6.90;;;18.90;51.40;;;;;;6242122;28;20072;-68
2022/12/15 04:06:58;;;;;;;9.80;6.75;;;18.90;51.50;;;;;;6240996;28;20030;-68
2022/12/15 04:09:58;;;;;;;10.73;7.50;;;18.90;51.50;;;;;;6260325;28;20054;-68
2022/12/15 04:13:04;;;;;;;10.93;6.97;;;18.90;51.40;;;;;;6246946;28;20029;-68
2022/12/15 04:16:05;;;;;;;11.10;7.13;;;18.90;51.30;;;;;;6246762;28;20483;-68
2022/12/15 04:22:25;;;;;;;11.18;6.90;;;18.90;51.40;;;;;;6246546;28;20029;-68
2022/12/15 05:31:53;;;;;;;8.85;6.05;;;18.90;51.30;;;;;;6245278;28;20033;-68
2022/12/15 05:34:54;;;;;;;10.05;6.50;;;18.90;51.40;;;;;;6260159;28;20116;-68
2022/12/15 05:37:54;;;;;;;9.95;6.57;;;18.90;51.30;;;;;;6245041;28;20521;-68
2022/12/15 05:40:59;;;;;;;9.00;6.22;;;18.90;51.40;;;;;;6244903;28;20578;-68
2022/12/15 05:44:00;;;;;;;10.63;6.95;;;18.90;51.40;;;;;;6244794;28;20045;-68
2022/12/15 05:47:01;;;;;;;8.88;6.25;;;18.90;51.30;;;;;;6244393;28;20026;-68
2022/12/15 05:50:02;;;;;;;11.50;7.18;;;18.90;51.30;;;;;;6244949;28;20514;-68
2022/12/15 05:53:02;;;;;;;11.27;6.85;;;18.90;51.40;;;;;;6244549;28;20113;-68
2022/12/15 05:56:05;;;;;;;10.13;6.60;;;18.90;51.40;;;;;;6244254;28;20091;-68
2022/12/15 05:59:06;;;;;;;10.80;6.63;;;18.90;51.40;;;;;;6244711;28;20516;-68
2022/12/15 06:02:06;;;;;;;8.73;6.43;;;18.90;51.40;;;;;;6232551;28;20056;-68
2022/12/15 06:05:07;;;;;;;8.80;6.57;;;18.90;51.40;;;;;;6223767;28;20021;-68
2022/12/15 06:08:08;;;;;;;10.45;6.93;;;18.90;51.40;;;;;;6244226;28;20423;-68
2022/12/15 06:11:11;;;;;;;9.32;6.35;;;18.90;51.40;;;;;;6242758;28;20029;-69
2022/12/15 06:14:12;;;;;;;10.60;6.85;;;18.90;51.40;;;;;;6244460;28;20510;-68
2022/12/15 06:17:12;;;;;;;10.05;6.35;;;18.90;51.40;;;;;;6244610;28;20059;-69
2022/12/15 06:20:13;;;;;;;9.60;6.32;;;19.00;51.50;;;;;;6244876;28;20017;-69
2022/12/15 06:23:14;;;;;;;8.98;6.35;;;18.90;51.30;;;;;;6242762;28;20099;-69
2022/12/15 06:26:29;;;;;;;10.18;6.90;;;18.90;51.40;;;;;;6244344;28;20104;-69
2022/12/15 06:29:30;;;;;;;9.82;6.63;;;18.90;51.40;;;;;;6244513;28;20025;-69
2022/12/15 06:32:34;;;;;;;11.15;6.80;;;18.90;51.40;;;;;;6244487;28;20082;-69
2022/12/15 06:35:36;;;;;;;10.00;6.63;;;18.90;51.40;;;;;;6243867;28;20548;-69
2022/12/15 06:38:37;;;;;;;9.70;6.80;;;18.90;51.40;;;;;;6243901;28;20021;-68
2022/12/15 06:41:38;;;;;;;10.48;7.10;;;18.90;51.30;;;;;;6243920;28;20548;-69
2022/12/15 06:44:39;;;;;;;10.55;7.40;;;18.90;51.40;;;;;;6243701;28;20049;-68
2022/12/15 06:47:40;;;;;;;12.45;7.90;;;18.90;51.30;;;;;;6243506;28;20021;-69
2022/12/15 06:50:41;;;;;;;10.60;7.20;;;18.90;51.30;;;;;;6244016;28;20825;-69
2022/12/15 06:53:47;;;;;;;12.52;8.07;;;18.90;51.30;;;;;;6243570;28;20092;-69
2022/12/15 06:56:48;;;;;;;11.13;7.78;;;18.90;51.30;;;;;;6242273;28;20147;-70
2022/12/15 06:59:49;;;;;;;10.55;7.68;;;18.90;51.40;;;;;;6243633;28;20386;-69
2022/12/15 07:02:49;;;;;;;14.68;9.32;;;18.90;51.30;;;;;;6246766;28;20021;-70
2022/12/15 07:06:03;;;;;;;13.77;8.95;;;18.90;51.30;;;;;;6245574;28;20082;-68
2022/12/15 07:09:14;;;;;;;14.70;8.52;;;18.90;51.30;;;;;;6244250;28;20025;-69
2022/12/15 07:12:16;;;;;;;13.20;8.90;;;18.90;51.30;;;;;;6243977;28;20049;-69
2022/12/15 07:15:17;;;;;;;14.32;9.55;;;18.90;51.30;;;;;;6245535;28;20503;-69
2022/12/15 07:18:18;;;;;;;13.50;9.32;;;18.90;51.30;;;;;;6260321;28;20025;-69
2022/12/15 07:21:19;;;;;;;13.65;8.90;;;18.90;51.30;;;;;;6244357;28;20108;-69
2022/12/15 07:24:19;;;;;;;14.82;10.32;;;18.90;51.20;;;;;;6245062;28;20029;-69
2022/12/15 07:27:20;;;;;;;15.80;9.80;;;18.90;51.30;;;;;;6244001;28;20047;-69
2022/12/15 07:30:21;;;;;;;16.17;10.38;;;18.90;51.20;;;;;;6245422;28;20025;-69
2022/12/15 07:33:21;;;;;;;15.60;10.60;;;18.90;51.30;;;;;;6245571;28;20030;-69
2022/12/15 07:36:22;;;;;;;14.43;9.63;;;18.90;51.40;;;;;;6245615;28;20075;-69
2022/12/15 07:39:23;;;;;;;16.95;11.15;;;18.90;51.30;;;;;;6245371;28;20479;-69
2022/12/15 07:42:23;;;;;;;17.65;10.98;;;18.90;51.40;;;;;;6244926;28;20036;-69
2022/12/15 07:45:24;;;;;;;15.43;10.65;;;18.90;51.30;;;;;;6249571;28;20024;-69
2022/12/15 07:48:26;;;;;;;18.27;11.68;;;18.90;51.30;;;;;;6249827;28;20033;-69
2022/12/15 07:51:26;;;;;;;18.55;11.63;;;18.90;51.40;;;;;;6250166;28;20022;-69
2022/12/15 07:54:28;;;;;;;18.05;12.38;;;18.90;51.30;;;;;;6250163;28;20024;-69
2022/12/15 07:57:29;;;;;;;17.05;11.88;;;18.90;51.40;;;;;;6250242;28;20055;-69
2022/12/15 08:00:30;;;;;;;18.45;12.50;;;18.90;51.30;;;;;;6248545;28;20433;-69
2022/12/15 08:03:31;;;;;;;20.85;13.98;;;18.90;51.30;;;;;;6249659;28;20075;-69
2022/12/15 08:06:32;;;;;;;20.20;13.25;;;18.90;51.30;;;;;;6247937;28;20030;-69
2022/12/15 08:09:32;;;;;;;19.02;13.15;;;18.90;51.40;;;;;;6249154;28;20490;-69
2022/12/15 08:12:33;;;;;;;18.83;12.82;;;18.90;51.30;;;;;;6249335;28;20049;-69
2022/12/15 08:15:36;;;;;;;20.75;13.30;;;18.90;51.30;;;;;;6249076;28;20028;-69
2022/12/15 08:18:38;;;;;;;20.13;13.88;;;18.90;51.30;;;;;;6249395;28;20026;-69
2022/12/15 08:21:40;;;;;;;18.95;13.48;;;18.90;51.30;;;;;;6247608;28;20068;-68
2022/12/15 08:24:41;;;;;;;20.70;14.18;;;18.90;51.40;;;;;;6247967;28;20502;-69
2022/12/15 08:27:42;;;;;;;20.33;13.35;;;18.90;51.30;;;;;;6249094;28;20024;-68
2022/12/15 08:30:43;;;;;;;20.67;13.90;;;18.90;51.30;;;;;;6248094;28;20451;-68
2022/12/15 08:33:44;;;;;;;20.98;14.23;;;18.90;51.20;;;;;;6248913;28;20025;-68
2022/12/15 08:36:45;;;;;;;22.77;14.40;;;18.90;51.30;;;;;;6247284;28;20433;-69
2022/12/15 08:39:46;;;;;;;20.42;14.00;;;18.90;51.70;;;;;;6249201;28;20029;-68
2022/12/15 08:42:47;;;;;;;20.85;14.18;;;18.90;51.20;;;;;;6248611;28;20025;-69
2022/12/15 08:45:48;;;;;;;20.13;13.43;;;18.90;51.20;;;;;;6248825;28;20036;-69
2022/12/15 08:48:49;;;;;;;24.02;15.98;;;18.90;51.30;;;;;;6248424;28;20559;-68
2022/12/15 08:51:50;;;;;;;19.15;14.23;;;18.90;51.20;;;;;;6247357;28;20710;-69
2022/12/15 08:54:51;;;;;;;20.60;14.00;;;18.90;51.20;;;;;;6247434;28;20048;-69
2022/12/15 08:57:53;;;;;;;21.38;14.55;;;18.90;51.30;;;;;;6248480;28;20064;-70
2022/12/15 09:01:06;;;;;;;19.60;13.80;;;18.90;51.30;;;;;;6248525;28;20025;-69
2022/12/15 09:04:07;;;;;;;23.52;14.82;;;18.90;51.20;;;;;;6247099;28;20055;-69
2022/12/15 09:07:07;;;;;;;20.48;14.13;;;18.90;51.30;;;;;;6248360;28;20029;-69
2022/12/15 09:10:08;;;;;;;24.52;15.38;;;18.90;51.20;;;;;;6247053;28;20032;-68
2022/12/15 09:13:09;;;;;;;23.38;15.40;;;18.90;51.30;;;;;;6248211;28;20116;-69
2022/12/15 09:16:13;;;;;;;23.35;15.85;;;18.90;51.30;;;;;;6247839;28;20033;-69
2022/12/15 09:19:14;;;;;;;16.50;11.70;;;18.90;51.40;;;;;;6246720;28;20033;-69
2022/12/15 09:22:14;;;;;;;20.02;13.95;;;18.90;51.20;;;;;;6248029;28;20410;-69
2022/12/15 09:25:15;;;;;;;21.98;14.75;;;18.90;51.30;;;;;;6247978;28;20067;-69
2022/12/15 09:28:16;;;;;;;21.55;15.10;;;18.90;51.20;;;;;;6247698;28;20065;-69
2022/12/15 09:31:27;;;;;;;22.90;15.45;;;18.90;51.20;;;;;;6247730;28;20064;-68
2022/12/15 09:34:27;;;;;;;21.83;15.13;;;18.90;51.20;;;;;;6246173;28;20030;-69
2022/12/15 09:37:30;;;;;;;24.23;16.75;;;18.90;51.20;;;;;;6247323;28;20037;-68
2022/12/15 09:40:32;;;;;;;20.85;14.02;;;18.90;51.30;;;;;;6247644;28;20023;-68
2022/12/15 09:43:34;;;;;;;20.27;13.77;;;18.90;51.30;;;;;;6246115;28;20112;-69
2022/12/15 09:47:10;;;;;;;22.90;15.50;;;18.90;51.30;;;;;;6247275;28;20033;-69
2022/12/15 09:50:14;;;;;;;22.63;15.07;;;18.90;51.30;;;;;;6243582;28;20044;-68
2022/12/15 09:53:16;;;;;;;23.02;15.25;;;18.90;51.30;;;;;;6245946;28;20488;-69
2022/12/15 09:56:22;;;;;;;21.52;14.18;;;18.90;51.30;;;;;;6246843;28;20046;-68
2022/12/15 09:59:22;;;;;;;21.55;14.10;;;18.90;51.40;;;;;;6247159;28;20112;-68
2022/12/15 10:02:54;;;;;;;20.38;14.00;;;18.90;51.40;;;;;;6246711;28;20025;-68
2022/12/15 10:06:11;;;;;;;21.92;14.60;;;18.90;51.30;;;;;;6246667;28;20033;-69
2022/12/15 10:09:26;;;;;;;23.75;15.63;;;18.90;51.40;;;;;;6246929;28;20033;-69
2022/12/15 10:12:36;;;;;;;22.63;14.95;;;18.90;51.40;;;;;;6245319;28;20033;-68
2022/12/15 10:15:46;;;;;;;22.45;15.50;;;18.90;51.40;;;;;;6246803;28;20119;-69
2022/12/15 10:18:54;;;;;;;22.02;14.98;;;18.90;51.40;;;;;;6246934;28;20029;-69
2022/12/15 10:21:57;;;;;;;22.80;15.20;;;18.90;51.40;;;;;;6245572;28;20060;-69
2022/12/15 10:25:18;;;;;;;21.30;14.65;;;18.90;51.40;;;;;;6246101;28;20128;-69
2022/12/15 10:28:45;;;;;;;22.27;15.27;;;18.90;51.40;;;;;;6254845;28;20060;-68
2022/12/15 10:32:04;;;;;;;20.67;14.52;;;18.90;51.40;;;;;;6246267;28;20022;-68
2022/12/15 10:35:21;;;;;;;23.35;15.02;;;18.90;51.40;;;;;;6246774;28;20029;-68
2022/12/15 10:38:24;;;;;;;21.85;15.40;;;18.90;51.30;;;;;;6246933;28;20021;-69
2022/12/15 10:41:25;;;;;;;21.70;15.18;;;18.90;51.40;;;;;;6246044;28;20025;-69
2022/12/15 10:44:36;;;;;;;21.73;15.00;;;18.90;51.40;;;;;;6244782;28;20026;-69
2022/12/15 10:47:38;;;;;;;21.77;15.65;;;18.90;51.40;;;;;;6245881;28;20132;-68
2022/12/15 10:50:38;;;;;;;21.25;14.60;;;18.90;51.40;;;;;;6245815;28;20029;-69
2022/12/15 10:53:45;;;;;;;20.85;14.70;;;18.90;51.40;;;;;;6245901;28;20383;-69
2022/12/15 10:56:54;;;;;;;21.42;14.52;;;18.90;51.40;;;;;;6244037;28;20419;-69
2022/12/15 11:00:23;;;;;;;20.40;13.73;;;18.90;51.40;;;;;;6244283;28;20028;-68
2022/12/15 11:03:25;;;;;;;22.45;15.35;;;18.90;51.40;;;;;;6237670;28;20084;-68
2022/12/15 11:06:30;;;;;;;22.35;15.35;;;18.90;51.40;;;;;;6260084;28;20027;-68
2022/12/15 11:09:38;;;;;;;20.48;14.88;;;18.90;51.40;;;;;;6245023;28;20026;-68
2022/12/15 11:12:50;;;;;;;20.95;14.45;;;18.90;51.40;;;;;;6244771;28;20056;-68
2022/12/15 11:15:53;;;;;;;22.50;15.32;;;18.90;51.40;;;;;;6245460;28;20037;-68
2022/12/15 11:19:23;;;;;;;21.90;15.10;;;18.90;51.40;;;;;;6244652;28;20036;-67
2022/12/15 11:22:40;;;;;;;20.98;14.38;;;18.90;51.50;;;;;;6245345;28;20052;-67
2022/12/15 11:25:50;;;;;;;22.48;14.60;;;18.90;51.40;;;;;;6244455;28;20028;-68
2022/12/15 11:29:33;;;;;;;21.45;14.68;;;18.90;51.40;;;;;;6259750;28;20116;-67
2022/12/15 11:32:37;;;;;;;21.27;14.75;;;18.90;51.50;;;;;;6218699;28;20025;-68
2022/12/15 11:35:57;;;;;;;21.65;14.90;;;18.90;51.50;;;;;;6244999;28;20052;-68
2022/12/15 11:39:27;;;;;;;20.50;14.40;;;18.90;51.50;;;;;;6244708;28;20026;-68
2022/12/15 11:42:48;;;;;;;21.48;14.82;;;18.90;51.40;;;;;;6244667;28;20025;-68
2022/12/15 11:46:11;;;;;;;20.80;14.18;;;18.90;51.50;;;;;;6236900;28;20033;-68
2022/12/15 11:49:52;;;;;;;21.27;14.55;;;18.90;51.50;;;;;;6244533;28;20053;-68
2022/12/15 11:52:52;;;;;;;21.17;14.93;;;18.90;51.50;;;;;;6240213;28;20044;-68
2022/12/15 11:56:05;;;;;;;22.27;14.93;;;18.90;51.50;;;;;;6245269;28;20037;-68
2022/12/15 11:59:18;;;;;;;23.58;14.10;;;18.90;51.60;;;;;;6244401;28;20108;-68
2022/12/15 12:03:10;;;;;;;20.70;14.30;;;18.90;51.60;;;;;;6244512;28;20033;-68
2022/12/15 12:06:21;;;;;;;22.00;15.13;;;18.90;51.50;;;;;;6195686;28;20496;-67
2022/12/15 12:09:50;;;;;;;21.85;14.93;;;18.90;51.50;;;;;;6218509;28;20041;-68
2022/12/15 12:13:20;;;;;;;21.80;14.88;;;18.90;51.50;;;;;;6237186;28;20025;-68
2022/12/15 12:16:26;;;;;;;20.65;14.43;;;18.90;51.60;;;;;;6225123;28;20061;-68
2022/12/15 12:19:33;;;;;;;21.92;14.60;;;18.90;51.60;;;;;;6244319;28;20548;-68
2022/12/15 12:22:41;;;;;;;19.88;14.00;;;18.90;51.60;;;;;;6244475;28;20076;-68
2022/12/15 12:26:09;;;;;;;19.75;13.82;;;18.90;51.50;;;;;;6244132;28;20033;-68
2022/12/15 12:29:30;;;;;;;21.27;14.82;;;18.90;51.50;;;;;;6218938;28;20030;-68
2022/12/15 12:32:49;;;;;;;19.25;13.68;;;18.90;51.50;;;;;;6234398;28;20022;-68
2022/12/15 12:35:56;;;;;;;21.30;14.88;;;18.90;51.50;;;;;;6248684;28;20028;-68
2022/12/15 12:38:57;;;;;;;18.20;13.57;;;18.90;51.50;;;;;;6248904;28;20538;-68
2022/12/15 12:42:11;;;;;;;18.55;12.85;;;19.00;51.60;;;;;;6246972;28;20418;-68
2022/12/15 12:45:13;;;;;;;19.67;13.80;;;18.90;51.50;;;;;;6248490;28;20060;-68
2022/12/15 12:48:31;;;;;;;19.80;14.48;;;19.00;51.60;;;;;;6248924;28;20021;-68
2022/12/15 12:51:40;;;;;;;18.45;13.13;;;19.00;51.60;;;;;;6248486;28;20030;-67
2022/12/15 12:54:45;;;;;;;22.60;15.02;;;19.00;51.70;;;;;;6228514;28;20553;-67
2022/12/15 12:57:46;;;;;;;22.02;14.18;;;19.00;51.70;;;;;;6246585;28;20029;-67
2022/12/15 13:01:09;;;;;;;19.35;13.75;;;18.90;51.60;;;;;;6245466;28;20128;-67
2022/12/15 13:04:12;;;;;;;18.90;13.68;;;18.90;51.40;;;;;;6246028;28;20084;-67
2022/12/15 13:07:42;;;;;;;19.00;13.13;;;18.90;51.50;;;;;;6247057;28;20135;-67
2022/12/15 13:10:47;;;;;;;19.70;13.82;;;19.00;51.60;;;;;;6247452;28;20045;-75
2022/12/15 13:13:48;;;;;;;17.75;13.05;;;18.90;51.40;;;;;;6246161;28;20025;-68
2022/12/15 13:17:15;;;;;;;20.65;14.05;;;18.90;51.60;;;;;;6239951;28;20100;-67
2022/12/15 13:20:23;;;;;;;19.48;13.13;;;18.90;52.30;;;;;;6245415;28;20120;-67
2022/12/15 13:23:23;;;;;;;20.15;13.82;;;18.90;51.50;;;;;;6250007;28;20029;-67
2022/12/15 13:26:30;;;;;;;23.13;13.75;;;18.90;51.40;;;;;;6245689;28;20032;-67
2022/12/15 13:29:33;;;;;;;21.92;12.60;;;18.90;51.40;;;;;;6246992;28;20035;-67
2022/12/15 13:33:13;;;;;;;21.70;13.32;;;18.90;50.90;;;;;;6263939;28;20048;-67
2022/12/15 13:36:35;;;;;;;18.98;13.18;;;18.90;51.00;;;;;;6234684;28;20115;-70
2022/12/15 13:39:52;;;;;;;21.05;13.43;;;18.90;51.30;;;;;;6247203;28;20021;-68
2022/12/15 13:42:57;;;;;;;21.35;12.60;;;18.90;51.20;;;;;;6249719;28;20486;-67
2022/12/15 13:45:59;;;;;;;;;;;18.90;51.00;;;;;;6247237;28;20028;-68
2022/12/15 13:49:21;;;;;;;17.75;11.40;;;18.90;50.90;;;;;;6247059;28;19909;-67
2022/12/15 13:52:22;;;;;;;24.20;12.48;;;18.90;51.00;;;;;;6246936;28;20546;-67
2022/12/15 13:55:26;;;;;;;16.67;12.02;;;18.90;51.20;;;;;;6245415;28;20060;-67
2022/12/15 13:58:32;;;;;;;18.40;12.30;;;18.90;51.20;;;;;;6246279;28;20032;-67
2022/12/15 14:01:33;;;;;;;21.20;12.27;;;18.90;51.30;;;;;;6244827;28;20569;-70
2022/12/15 14:04:34;;;;;;;18.65;12.00;;;18.90;51.30;;;;;;6265903;28;20078;-67
2022/12/15 14:07:34;;;;;;;19.33;12.40;;;18.90;51.30;;;;;;6265873;28;20033;-67
2022/12/15 14:10:42;;;;;;;18.35;11.45;;;18.90;51.20;;;;;;6242792;28;20021;-68
2022/12/15 14:13:43;;;;;;;18.38;12.10;;;18.90;51.20;;;;;;6233670;28;20079;-68
2022/12/15 14:16:45;;;;;;;23.35;13.20;;;18.90;51.30;;;;;;6247169;28;20021;-67
2022/12/15 14:19:48;;;;;;;21.33;12.15;;;18.90;51.20;;;;;;6246225;28;20018;-67
2022/12/15 14:22:51;;;;;;;16.35;11.88;;;18.90;51.20;;;;;;6259173;28;20048;-67
2022/12/15 14:25:53;;;;;;;16.02;11.32;;;18.90;51.20;;;;;;6246057;28;20018;-67
2022/12/15 14:29:00;;;;;;;17.42;11.23;;;18.90;51.10;;;;;;6244435;28;20060;-67
2022/12/15 14:32:01;;;;;;;17.73;11.35;;;18.90;51.20;;;;;;6246932;28;20017;-67
2022/12/15 14:35:02;;;;;;;16.67;11.80;;;18.90;51.10;;;;;;6245337;28;20051;-68
2022/12/15 14:38:07;;;;;;;17.38;11.90;;;18.90;51.10;;;;;;6246053;28;20033;-67
2022/12/15 14:41:12;;;;;;;18.83;11.50;;;18.90;51.30;;;;;;6245937;28;20026;-68
2022/12/15 14:44:29;;;;;;;16.42;11.23;;;18.90;51.20;;;;;;6244331;28;20044;-67
2022/12/15 14:47:34;;;;;;;19.60;10.98;;;18.90;51.30;;;;;;6239840;28;20039;-67
2022/12/15 14:50:35;;;;;;;17.33;11.60;;;18.90;51.30;;;;;;6244607;28;20022;-67
2022/12/15 14:53:38;;;;;;;16.15;11.45;;;18.90;51.30;;;;;;6244039;28;20017;-67
2022/12/15 14:56:39;;;;;;;17.75;11.98;;;18.90;51.30;;;;;;6245522;28;20460;-67
2022/12/15 14:59:43;;;;;;;20.65;11.65;;;18.90;51.30;;;;;;6248338;28;20034;-67
2022/12/15 15:02:43;;;;;;;19.48;11.13;;;18.90;51.20;;;;;;6245179;28;20655;-67
2022/12/15 15:05:46;;;;;;;17.48;11.05;;;18.90;51.30;;;;;;6244840;28;20025;-67
2022/12/15 15:08:49;;;;;;;19.13;12.05;;;18.90;51.30;;;;;;6247507;28;20025;-67
2022/12/15 15:11:54;;;;;;;17.50;11.32;;;18.90;51.20;;;;;;6251071;28;20025;-67
2022/12/15 15:14:54;;;;;;;16.85;11.88;;;18.90;51.30;;;;;;6245097;28;20025;-68
2022/12/15 15:17:58;;;;;;;17.02;11.52;;;18.90;51.20;;;;;;6244522;28;20552;-67
2022/12/15 15:21:03;;;;;;;13.07;7.97;;;18.90;51.20;;;;;;6243906;28;20033;-67
2022/12/15 15:24:10;;;;;;;17.23;10.95;;;18.90;51.20;;;;;;6244256;28;20026;-67
2022/12/15 15:27:34;;;;;;;18.08;11.10;;;18.90;51.20;;;;;;6244375;28;20099;-71
2022/12/15 15:30:56;;;;;;;16.70;10.77;;;18.90;51.10;;;;;;6243937;28;20029;-70
2022/12/15 15:33:58;;;;;;;15.63;10.93;;;18.90;51.20;;;;;;6226816;28;20104;-70
2022/12/15 15:37:01;;;;;;;15.00;11.07;;;18.90;51.20;;;;;;6246805;28;20037;-68
2022/12/15 15:40:02;;;;;;;15.60;10.68;;;18.90;51.30;;;;;;6248833;28;20143;-67
2022/12/15 15:43:13;;;;;;;16.33;11.05;;;18.90;51.20;;;;;;6243876;28;20128;-71
2022/12/15 15:46:18;;;;;;;15.90;10.98;;;18.90;51.30;;;;;;6244124;28;20025;-68
2022/12/15 15:49:22;;;;;;;15.65;10.85;;;18.90;51.20;;;;;;6244539;28;20029;-68
2022/12/15 15:52:23;;;;;;;15.43;10.85;;;18.90;51.30;;;;;;6243786;28;20041;-71
2022/12/15 15:55:30;;;;;;;20.23;9.63;;;18.90;51.20;;;;;;6249976;28;20042;-70
2022/12/15 15:58:31;;;;;;;15.77;10.43;;;18.90;51.10;;;;;;6244870;28;20045;-70
2022/12/15 16:01:32;;;;;;;15.60;11.13;;;18.90;51.20;;;;;;6248570;28;20060;-71
2022/12/15 16:04:36;;;;;;;16.45;11.50;;;18.90;51.30;;;;;;6244368;28;20030;-70
2022/12/15 16:07:36;;;;;;;15.65;10.82;;;18.90;51.30;;;;;;6223877;28;20105;-70
2022/12/15 16:10:37;;;;;;;15.70;10.10;;;18.90;51.30;;;;;;6236525;28;20014;-70
2022/12/15 16:13:38;;;;;;;14.73;10.18;;;18.90;51.30;;;;;;6249571;28;20029;-70
2022/12/15 16:16:40;;;;;;;18.35;10.95;;;18.90;51.20;;;;;;6248653;28;20372;-71
2022/12/15 16:19:41;;;;;;;17.42;10.95;;;18.90;51.20;;;;;;6250452;28;20056;-70
2022/12/15 16:22:45;;;;;;;15.40;9.80;;;18.90;51.30;;;;;;6265998;28;20084;-70
2022/12/15 16:25:51;;;;;;;15.17;10.17;;;18.90;51.20;;;;;;6266087;28;20024;-70
2022/12/15 16:28:53;;;;;;;13.35;9.73;;;18.90;51.30;;;;;;6237838;28;20034;-70
2022/12/15 16:31:53;;;;;;;14.25;10.15;;;18.90;51.20;;;;;;6249837;28;20010;-70
2022/12/15 16:34:55;;;;;;;14.98;10.35;;;18.90;51.30;;;;;;6252195;28;20048;-71
2022/12/15 16:37:55;;;;;;;13.95;10.25;;;19.00;51.40;;;;;;6249521;28;20075;-71
2022/12/15 16:41:03;;;;;;;15.75;10.80;;;18.90;51.30;;;;;;6247144;28;20463;-70
2022/12/15 16:44:08;;;;;;;14.55;10.63;;;18.90;51.30;;;;;;6246104;28;20517;-71
2022/12/15 16:47:10;;;;;;;15.30;10.05;;;18.90;51.40;;;;;;6247508;28;20086;-70
2022/12/15 16:50:14;;;;;;;15.65;9.60;;;18.90;51.40;;;;;;6252097;28;20043;-70
2022/12/15 16:53:22;;;;;;;15.02;9.77;;;18.90;51.00;;;;;;6248735;28;20026;-70
2022/12/15 16:56:22;;;;;;;14.88;9.98;;;19.00;51.30;;;;;;6253579;28;20042;-70
2022/12/15 16:59:27;;;;;;;14.40;9.80;;;18.90;51.20;;;;;;6247331;28;20048;-69
2022/12/15 17:02:28;;;;;;;12.17;6.87;;;18.90;51.20;;;;;;6247214;28;20029;-71
2022/12/15 17:05:34;;;;;;;14.85;9.98;;;18.90;51.20;;;;;;6251256;28;20127;-69
2022/12/15 17:08:43;;;;;;;12.88;9.25;;;18.90;51.20;;;;;;6247258;28;20026;-70
2022/12/15 17:11:44;;;;;;;14.23;9.10;;;18.90;51.20;;;;;;6245172;28;20132;-70
2022/12/15 17:14:45;;;;;;;13.45;9.93;;;19.00;51.20;;;;;;6244904;28;20029;-70
2022/12/15 17:17:46;;;;;;;13.27;9.55;;;18.90;51.30;;;;;;6242265;28;20036;-70
2022/12/15 17:20:47;;;;;;;14.75;10.18;;;18.90;51.20;;;;;;6244614;28;20055;-70
2022/12/15 17:23:51;;;;;;;14.30;9.73;;;18.90;51.20;;;;;;6244818;28;20056;-70
2022/12/15 17:26:51;;;;;;;12.75;9.30;;;18.90;51.40;;;;;;6244286;28;20025;-70
2022/12/15 17:29:54;;;;;;;13.32;9.23;;;18.90;51.30;;;;;;6243679;28;20041;-70
2022/12/15 17:32:55;;;;;;;17.13;10.07;;;18.90;51.30;;;;;;6258867;28;20478;-70
2022/12/15 17:36:01;;;;;;;14.27;9.98;;;18.90;51.40;;;;;;6268580;28;20065;-70
2022/12/15 17:39:02;;;;;;;13.18;9.45;;;18.90;51.40;;;;;;6267794;28;20055;-70
2022/12/15 17:42:18;;;;;;;16.55;9.63;;;18.90;51.40;;;;;;6249835;28;20038;-70
2022/12/15 17:45:22;;;;;;;13.32;9.63;;;18.90;51.40;;;;;;6244309;28;20029;-70
2022/12/15 17:48:23;;;;;;;14.10;10.15;;;18.90;51.40;;;;;;6244334;28;20064;-70
2022/12/15 17:51:24;;;;;;;17.30;9.80;;;18.90;51.30;;;;;;6244113;28;20079;-70
2022/12/15 17:54:25;;;;;;;13.02;9.55;;;18.90;51.30;;;;;;6268343;28;20021;-69
2022/12/15 17:57:26;;;;;;;14.07;10.13;;;18.90;51.40;;;;;;6275325;28;20025;-69
2022/12/15 18:00:31;;;;;;;13.95;9.88;;;18.90;51.30;;;;;;6243223;28;20033;-70
2022/12/15 18:03:32;;;;;;;12.73;9.40;;;18.90;51.30;;;;;;6231162;28;20454;-71
2022/12/15 18:06:33;;;;;;;12.32;8.63;;;18.90;51.20;;;;;;6232649;28;20038;-70
2022/12/15 18:09:34;;;;;;;12.77;8.77;;;18.90;51.30;;;;;;6266763;28;20112;-70
2022/12/15 18:12:35;;;;;;;13.52;9.50;;;18.90;51.30;;;;;;6248767;28;20737;-70